Time;durP1;ratioP1;P1;durP2;ratioP2;P2;SDS_P1;SDS_P2;PMS_P1;PMS_P2;Temp;Humidity;BMP_temperature;BMP_pressure;BME280_temperature;BME280_humidity;BME280_pressure;Samples;Min_cycle;Max_cycle;Signal;HPM_P1;HPM_P2
2023/07/16 00:00:31;;;;;;;7.05;1.30;;;;;;;;;;5010017;28;20549;-83
2023/07/16 00:02:57;;;;;;;3.58;1.30;;;;;;;;;;5008873;28;21948;-85
2023/07/16 00:05:23;;;;;;;6.70;1.67;;;;;;;;;;5010948;28;20037;-82
2023/07/16 00:07:49;;;;;;;4.13;1.20;;;;;;;;;;5008259;28;20033;-84
2023/07/16 00:10:15;;;;;;;3.53;1.35;;;;;;;;;;5009052;28;20087;-82
2023/07/16 00:12:41;;;;;;;3.63;1.73;;;;;;;;;;5016903;28;20375;-80
2023/07/16 00:15:07;;;;;;;2.65;1.20;;;;;;;;;;5000173;28;20482;-81
2023/07/16 00:17:34;;;;;;;4.05;1.15;;;20.50;99.90;;;;;;5010084;28;20072;-82
2023/07/16 00:20:00;;;;;;;4.40;1.38;;;;;;;;;;5004390;28;20022;-81
2023/07/16 00:22:26;;;;;;;6.88;1.13;;;;;;;;;;5007144;28;20041;-81
2023/07/16 00:24:52;;;;;;;0.98;0.77;;;;;;;;;;5015968;28;20109;-83
2023/07/16 00:27:18;;;;;;;1.50;0.75;;;;;;;;;;5010291;28;20068;-83
2023/07/16 00:29:44;;;;;;;1.40;0.80;;;;;;;;;;5005880;28;20551;-83
2023/07/16 00:32:10;;;;;;;3.58;1.25;;;;;;;;;;5014161;28;20026;-80
2023/07/16 00:34:36;;;;;;;1.95;1.00;;;;;;;;;;5007573;28;20097;-83
2023/07/16 00:37:03;;;;;;;1.85;1.27;;;;;;;;;;5013250;28;20311;-82
2023/07/16 00:39:31;;;;;;;2.53;1.00;;;19.50;99.90;;;;;;5014415;28;20033;-82
2023/07/16 00:41:57;;;;;;;1.42;0.80;;;;;;;;;;5014175;28;20033;-82
2023/07/16 00:44:23;;;;;;;2.92;1.38;;;20.50;99.90;;;;;;5013878;28;20042;-82
2023/07/16 00:46:49;;;;;;;1.48;0.80;;;;;;;;;;5008970;28;20093;-82
2023/07/16 00:49:15;;;;;;;2.40;1.17;;;;;;;;;;5006976;28;20029;-81
2023/07/16 00:51:42;;;;;;;4.03;0.73;;;20.00;99.90;;;;;;5016403;28;20041;-81
2023/07/16 00:54:08;;;;;;;1.85;0.70;;;;;;;;;;5005864;28;20022;-81
2023/07/16 00:56:34;;;;;;;2.22;1.15;;;;;;;;;;5005515;28;20126;-81
2023/07/16 00:58:59;;;;;;;1.92;0.75;;;;;;;;;;5007188;28;20045;-82
2023/07/16 01:01:26;;;;;;;2.17;0.77;;;;;;;;;;5003481;28;20038;-81
2023/07/16 01:03:52;;;;;;;1.55;0.60;;;;;;;;;;5012627;28;20030;-80
2023/07/16 01:06:26;;;;;;;1.10;0.70;;;19.90;99.90;;;;;;5009756;28;20108;-82
2023/07/16 01:09:01;;;;;;;2.90;0.98;;;20.20;99.90;;;;;;5008979;28;20018;-81
2023/07/16 01:11:27;;;;;;;2.88;1.27;;;;;;;;;;5007726;28;20058;-80
2023/07/16 01:13:53;;;;;;;1.58;0.93;;;;;;;;;;5013807;28;20064;-80
2023/07/16 01:16:20;;;;;;;5.00;0.70;;;20.20;99.90;;;;;;5010070;28;20030;-80
2023/07/16 01:18:46;;;;;;;1.45;0.68;;;;;;;;;;5008633;28;20034;-80
2023/07/16 01:21:12;;;;;;;1.17;0.60;;;;;;;;;;5003634;28;20053;-80
2023/07/16 01:23:38;;;;;;;1.20;0.60;;;;;;;;;;5003186;28;20072;-80
2023/07/16 01:26:23;;;;;;;1.58;0.77;;;19.90;99.90;;;;;;5015261;28;20838;-80
2023/07/16 01:29:26;;;;;;;1.30;0.65;;;20.10;99.90;;;;;;5003596;28;20389;-80
2023/07/16 01:31:54;;;;;;;1.05;0.47;;;19.80;99.90;;;;;;5006202;28;20350;-80
2023/07/16 01:34:21;;;;;;;1.85;0.75;;;20.30;99.90;;;;;;5006133;28;20026;-80
2023/07/16 01:36:47;;;;;;;2.15;0.43;;;;;;;;;;5002477;28;20088;-80
2023/07/16 01:39:14;;;;;;;0.77;0.40;;;19.80;99.90;;;;;;4994575;28;20025;-79
2023/07/16 01:41:39;;;;;;;1.98;0.50;;;;;;;;;;5003896;28;20034;-80
2023/07/16 01:44:05;;;;;;;3.58;0.52;;;;;;;;;;4992751;28;20068;-79
2023/07/16 01:46:32;;;;;;;2.58;0.60;;;;;;;;;;5006070;28;20486;-80
2023/07/16 01:48:58;;;;;;;1.70;0.47;;;;;;;;;;5003993;28;20037;-79
2023/07/16 01:51:24;;;;;;;1.00;0.50;;;;;;;;;;5003849;28;20049;-80
2023/07/16 01:53:50;;;;;;;2.80;0.43;;;;;;;;;;5003014;28;20041;-79
2023/07/16 01:56:17;;;;;;;6.10;0.75;;;;;;;;;;5001592;28;20036;-78
2023/07/16 01:58:43;;;;;;;2.33;0.60;;;;;;;;;;5004386;28;20065;-79
2023/07/16 02:01:08;;;;;;;5.10;0.68;;;19.70;99.90;;;;;;5000560;28;20030;-79
2023/07/16 02:03:34;;;;;;;2.55;0.40;;;;;;;;;;4983024;28;20068;-79
2023/07/16 02:06:00;;;;;;;4.32;0.73;;;;;;;;;;5000529;28;20039;-79
2023/07/16 02:08:26;;;;;;;1.63;0.82;;;;;;;;;;4998243;28;20079;-79
2023/07/16 02:10:52;;;;;;;1.83;0.55;;;;;;;;;;5002984;28;20049;-79
2023/07/16 02:13:18;;;;;;;1.13;0.50;;;;;;;;;;5000694;28;20018;-79
2023/07/16 02:15:44;;;;;;;1.27;0.55;;;;;;;;;;4998698;28;20061;-78
2023/07/16 02:18:10;;;;;;;2.28;0.52;;;;;;;;;;4998374;28;20485;-79
2023/07/16 02:20:36;;;;;;;0.85;0.30;;;;;;;;;;4996792;28;20026;-79
2023/07/16 02:23:02;;;;;;;1.92;0.32;;;;;;;;;;4998882;28;20041;-79
2023/07/16 02:25:28;;;;;;;3.58;0.40;;;;;;;;;;4995201;28;20061;-79
2023/07/16 02:27:54;;;;;;;3.30;0.47;;;;;;;;;;4997958;28;20054;-79
2023/07/16 02:30:20;;;;;;;0.57;0.38;;;;;;;;;;4990631;28;20620;-80
2023/07/16 02:32:46;;;;;;;0.85;0.30;;;;;;;;;;4998618;28;20293;-79
2023/07/16 02:35:12;;;;;;;1.15;0.30;;;;;;;;;;5001167;28;20477;-79
2023/07/16 02:37:38;;;;;;;1.58;0.60;;;;;;;;;;4996691;28;20109;-79
2023/07/16 02:40:04;;;;;;;3.45;0.40;;;;;;;;;;5003454;28;20023;-78
2023/07/16 02:42:30;;;;;;;1.02;0.50;;;;;;;;;;5004078;28;20504;-79
2023/07/16 02:44:56;;;;;;;0.55;0.30;;;;;;;;;;4994314;28;20034;-79
2023/07/16 02:47:22;;;;;;;0.60;0.30;;;;;;;;;;5005111;28;20076;-79
2023/07/16 02:49:51;;;;;;;0.85;0.40;;;18.40;99.90;;;;;;5001780;28;20018;-79
2023/07/16 02:52:17;;;;;;;1.25;0.52;;;;;;;;;;4994333;28;20037;-78
2023/07/16 02:54:43;;;;;;;1.08;0.50;;;;;;;;;;4994631;28;20030;-78
2023/07/16 02:57:09;;;;;;;0.70;0.22;;;;;;;;;;4991741;28;20030;-78
2023/07/16 02:59:35;;;;;;;2.55;0.40;;;18.70;99.90;;;;;;4996390;28;20124;-78
2023/07/16 03:02:00;;;;;;;1.77;0.38;;;18.60;99.90;;;;;;5000814;28;20076;-79
2023/07/16 03:04:26;;;;;;;1.05;0.30;;;;;;;;;;5001419;28;20591;-78
2023/07/16 03:06:52;;;;;;;1.23;0.60;;;;;;;;;;4997030;28;20053;-78
2023/07/16 03:09:18;;;;;;;0.77;0.30;;;;;;;;;;5007116;28;20121;-78
2023/07/16 03:11:44;;;;;;;2.17;0.60;;;;;;;;;;4995671;28;20752;-78
2023/07/16 03:14:10;;;;;;;2.75;0.52;;;;;;;;;;4996892;28;20022;-78
2023/07/16 03:16:36;;;;;;;0.70;0.30;;;;;;;;;;4995219;28;22570;-79
2023/07/16 03:19:02;;;;;;;2.03;0.70;;;;;;;;;;5001168;28;20022;-78
2023/07/16 03:21:28;;;;;;;0.63;0.30;;;;;;;;;;5006326;28;20117;-78
2023/07/16 03:23:54;;;;;;;1.02;0.60;;;;;;;;;;4994860;28;20033;-78
2023/07/16 03:26:20;;;;;;;1.48;0.30;;;;;;;;;;5008954;28;20033;-77
2023/07/16 03:28:46;;;;;;;1.05;0.40;;;;;;;;;;4996236;28;20068;-78
2023/07/16 03:31:11;;;;;;;2.55;0.50;;;19.00;99.90;;;;;;4995938;28;20049;-77
2023/07/16 03:33:37;;;;;;;3.22;0.65;;;;;;;;;;4999135;28;20654;-77
2023/07/16 03:36:03;;;;;;;1.08;0.57;;;;;;;;;;4990768;28;20019;-77
2023/07/16 03:38:29;;;;;;;2.58;0.68;;;;;;;;;;4999684;28;20084;-77
2023/07/16 03:40:55;;;;;;;2.13;0.60;;;;;;;;;;5005012;28;20061;-77
2023/07/16 03:43:21;;;;;;;2.00;0.75;;;;;;;;;;5001730;28;20026;-78
2023/07/16 03:45:47;;;;;;;0.82;0.35;;;;;;;;;;4994309;28;20050;-77
2023/07/16 03:48:13;;;;;;;5.05;0.60;;;;;;;;;;4991264;28;20405;-78
2023/07/16 03:50:39;;;;;;;2.47;0.55;;;;;;;;;;4996730;28;20432;-78
2023/07/16 03:53:05;;;;;;;1.80;0.60;;;;;;;;;;4992268;28;20022;-78
2023/07/16 03:55:31;;;;;;;1.33;0.45;;;;;;;;;;4999751;28;20492;-78
2023/07/16 03:57:57;;;;;;;1.55;0.40;;;;;;;;;;4993520;28;20033;-78
2023/07/16 04:00:23;;;;;;;1.20;0.55;;;;;;;;;;4994539;28;20136;-77
2023/07/16 04:02:49;;;;;;;3.60;0.70;;;;;;;;;;4988615;28;20026;-77
2023/07/16 04:05:15;;;;;;;1.50;0.88;;;;;;;;;;4979295;28;20033;-77
2023/07/16 04:07:41;;;;;;;1.45;0.30;;;;;;;;;;4968903;28;20191;-77
2023/07/16 04:10:07;;;;;;;1.13;0.50;;;;;;;;;;4994565;28;20038;-78
2023/07/16 04:12:33;;;;;;;1.17;0.47;;;;;;;;;;4979460;28;20038;-77
2023/07/16 04:14:59;;;;;;;3.70;0.80;;;;;;;;;;5000307;28;20026;-78
2023/07/16 04:17:25;;;;;;;1.52;0.63;;;;;;;;;;4993267;28;20084;-78
2023/07/16 04:19:51;;;;;;;0.98;0.43;;;;;;;;;;4986572;28;20086;-77
2023/07/16 04:22:17;;;;;;;1.48;0.60;;;;;;;;;;4975648;28;20912;-77
2023/07/16 04:24:44;;;;;;;0.80;0.47;;;;;;;;;;4989501;28;20064;-78
2023/07/16 04:27:10;;;;;;;4.20;0.50;;;;;;;;;;4996993;28;20078;-78
2023/07/16 04:29:36;;;;;;;2.33;0.40;;;;;;;;;;4976067;28;20925;-77
2023/07/16 04:32:02;;;;;;;2.38;0.70;;;;;;;;;;4984159;28;20072;-78
2023/07/16 04:34:28;;;;;;;2.17;0.52;;;;;;;;;;4996091;28;20046;-78
2023/07/16 04:36:54;;;;;;;1.58;1.08;;;;;;;;;;4983867;28;20580;-78
2023/07/16 04:39:20;;;;;;;4.93;0.63;;;;;;;;;;4997027;28;20051;-78
2023/07/16 04:41:46;;;;;;;1.05;0.40;;;;;;;;;;4989397;28;20041;-78
2023/07/16 04:44:12;;;;;;;1.10;0.43;;;;;;;;;;4997439;28;20117;-77
2023/07/16 04:46:38;;;;;;;2.10;0.50;;;;;;;;;;4999304;28;20048;-77
2023/07/16 04:49:05;;;;;;;3.30;0.63;;;;;;;;;;5002133;28;20034;-77
2023/07/16 04:51:31;;;;;;;2.95;0.55;;;;;;;;;;5002751;28;20567;-78
2023/07/16 04:53:57;;;;;;;1.83;0.80;;;;;;;;;;4984850;28;20032;-77
2023/07/16 04:56:23;;;;;;;5.43;0.60;;;;;;;;;;5001575;28;20061;-77
2023/07/16 04:58:48;;;;;;;2.28;0.43;;;;;;;;;;4998101;28;20026;-78
2023/07/16 05:01:14;;;;;;;2.08;0.50;;;;;;;;;;4996022;28;20034;-78
2023/07/16 05:03:41;;;;;;;3.17;0.60;;;;;;;;;;4996866;28;20037;-77
2023/07/16 05:06:07;;;;;;;2.30;0.60;;;;;;;;;;5007541;28;20475;-77
2023/07/16 05:08:33;;;;;;;5.50;1.08;;;;;;;;;;5007162;28;20025;-77
2023/07/16 05:10:59;;;;;;;4.28;0.50;;;;;;;;;;5006564;28;20164;-78
2023/07/16 05:13:24;;;;;;;1.65;0.68;;;18.50;99.90;;;;;;5001101;28;20033;-77
2023/07/16 05:15:50;;;;;;;2.70;0.50;;;;;;;;;;4994983;28;20395;-77
2023/07/16 05:18:16;;;;;;;1.95;0.75;;;;;;;;;;5002790;28;20653;-77
2023/07/16 05:20:42;;;;;;;1.65;0.50;;;;;;;;;;4995256;28;20180;-77
2023/07/16 05:23:10;;;;;;;2.05;0.47;;;;;;;;;;4996229;28;20120;-77
2023/07/16 05:25:36;;;;;;;5.38;1.15;;;;;;;;;;4993093;28;20029;-77
2023/07/16 05:28:02;;;;;;;1.75;0.45;;;;;;;;;;4993684;28;20045;-77
2023/07/16 05:30:28;;;;;;;5.70;1.08;;;;;;;;;;5000841;28;20028;-77
2023/07/16 05:32:54;;;;;;;2.00;0.50;;;;;;;;;;4999474;28;20026;-77
2023/07/16 05:35:19;;;;;;;1.58;0.52;;;;;;;;;;4961715;28;20064;-77
2023/07/16 05:37:45;;;;;;;1.98;0.45;;;19.20;99.90;;;;;;4979991;28;20029;-76
2023/07/16 05:40:11;;;;;;;7.00;0.95;;;;;;;;;;4981452;28;20042;-77
2023/07/16 05:42:37;;;;;;;1.05;0.60;;;;;;;;;;4973455;28;20457;-77
2023/07/16 05:45:03;;;;;;;3.50;0.95;;;;;;;;;;4977053;28;20022;-77
2023/07/16 05:47:29;;;;;;;2.40;0.50;;;;;;;;;;4988948;28;20387;-77
2023/07/16 05:49:55;;;;;;;4.25;0.70;;;;;;;;;;4977017;28;20040;-76
2023/07/16 05:52:21;;;;;;;1.10;0.70;;;;;;;;;;4978694;28;20052;-77
2023/07/16 05:54:47;;;;;;;7.25;0.90;;;;;;;;;;4993098;28;20042;-77
2023/07/16 05:57:13;;;;;;;4.82;0.70;;;;;;;;;;4992665;28;20045;-77
2023/07/16 05:59:39;;;;;;;6.80;1.10;;;;;;;;;;4987020;28;21890;-78
2023/07/16 06:02:06;;;;;;;2.13;0.75;;;;;;;;;;4987757;28;20068;-77
2023/07/16 06:04:32;;;;;;;6.93;0.85;;;;;;;;;;4990231;28;20040;-78
2023/07/16 06:06:58;;;;;;;9.43;0.88;;;;;;;;;;4977082;28;20422;-77
2023/07/16 06:09:24;;;;;;;10.00;1.17;;;;;;;;;;4993956;28;20063;-77
2023/07/16 06:11:50;;;;;;;4.75;0.57;;;;;;;;;;4972239;28;20775;-78
2023/07/16 06:14:16;;;;;;;1.33;0.60;;;;;;;;;;4985971;28;20033;-78
2023/07/16 06:16:42;;;;;;;6.15;1.45;;;;;;;;;;4985307;28;20036;-78
2023/07/16 06:19:08;;;;;;;3.75;0.50;;;;;;;;;;5000614;28;20172;-78
2023/07/16 06:21:34;;;;;;;3.53;0.70;;;;;;;;;;4989240;28;20649;-78
2023/07/16 06:24:00;;;;;;;16.10;1.08;;;;;;;;;;4995739;28;20036;-77
2023/07/16 06:26:26;;;;;;;5.88;1.02;;;;;;;;;;4999657;28;20034;-77
2023/07/16 06:28:52;;;;;;;1.02;0.55;;;;;;;;;;4986534;28;20496;-78
2023/07/16 06:31:18;;;;;;;3.65;0.70;;;;;;;;;;5002932;28;20481;-78
2023/07/16 06:33:46;;;;;;;5.00;0.80;;;;;;;;;;4998649;28;20113;-79
2023/07/16 06:36:12;;;;;;;1.73;0.63;;;;;;;;;;4999553;28;20037;-79
2023/07/16 06:38:38;;;;;;;3.03;0.57;;;;;;;;;;5008807;28;20021;-79
2023/07/16 06:41:04;;;;;;;1.63;0.60;;;;;;;;;;4997334;28;20038;-78
2023/07/16 06:43:30;;;;;;;3.92;0.70;;;;;;;;;;5000046;28;20049;-78
2023/07/16 06:45:56;;;;;;;3.70;0.75;;;;;;;;;;4998847;28;20042;-80
2023/07/16 06:48:23;;;;;;;2.00;0.60;;;19.80;99.90;;;;;;5000799;28;20030;-79
2023/07/16 06:50:51;;;;;;;1.15;0.50;;;;;;;;;;4997291;28;20048;-80
2023/07/16 06:53:17;;;;;;;6.22;0.65;;;;;;;;;;4995729;28;20041;-79
2023/07/16 06:55:43;;;;;;;1.88;0.80;;;;;;;;;;5004236;28;20051;-79
2023/07/16 06:58:13;;;;;;;1.63;0.50;;;20.90;99.90;;;;;;4990801;28;20093;-77
2023/07/16 07:00:39;;;;;;;3.95;0.70;;;;;;;;;;4998566;28;20022;-79
2023/07/16 07:03:05;;;;;;;2.47;0.85;;;;;;;;;;4999809;28;20288;-80
2023/07/16 07:05:31;;;;;;;5.68;0.70;;;;;;;;;;4995317;28;20041;-79
2023/07/16 07:07:57;;;;;;;1.67;0.63;;;;;;;;;;4996953;28;21866;-78
2023/07/16 07:10:23;;;;;;;2.15;0.60;;;;;;;;;;4998963;28;20065;-78
2023/07/16 07:12:49;;;;;;;3.00;1.05;;;;;;;;;;4980840;28;20036;-79
2023/07/16 07:15:16;;;;;;;2.58;0.60;;;;;;;;;;4982209;28;20040;-78
2023/07/16 07:17:42;;;;;;;2.10;0.70;;;;;;;;;;4982129;28;20069;-79
2023/07/16 07:20:08;;;;;;;1.50;0.63;;;;;;;;;;4971588;28;20501;-79
2023/07/16 07:22:35;;;;;;;6.65;0.73;;;;;;;;;;4972413;28;20404;-77
2023/07/16 07:25:01;;;;;;;1.67;0.73;;;;;;;;;;4995016;28;20510;-79
2023/07/16 07:27:27;;;;;;;4.78;0.82;;;;;;;;;;5004189;28;20034;-79
2023/07/16 07:29:55;;;;;;;2.75;0.60;;;;;;;;;;4984929;28;20520;-79
2023/07/16 07:32:21;;;;;;;2.28;0.60;;;;;;;;;;4987839;28;20037;-78
2023/07/16 07:34:47;;;;;;;1.73;0.68;;;;;;;;;;4991531;28;20031;-77
2023/07/16 07:37:13;;;;;;;2.13;0.60;;;22.40;99.90;;;;;;4991482;28;20034;-79
2023/07/16 07:39:39;;;;;;;2.33;0.75;;;;;;;;;;4996554;28;20127;-79
2023/07/16 07:42:05;;;;;;;2.72;0.63;;;23.30;99.90;;;;;;5002718;28;20030;-79
2023/07/16 07:44:31;;;;;;;1.67;0.50;;;;;;;;;;4999321;28;20710;-80
2023/07/16 07:46:57;;;;;;;1.33;0.55;;;;;;;;;;5016280;28;20060;-80
2023/07/16 07:49:23;;;;;;;4.88;0.88;;;;;;;;;;4990050;28;21476;-79
2023/07/16 07:51:49;;;;;;;4.03;0.68;;;;;;;;;;4997413;28;20037;-80
2023/07/16 07:54:15;;;;;;;1.73;0.40;;;;;;;;;;4996012;28;20037;-79
2023/07/16 07:56:41;;;;;;;1.45;0.52;;;;;;;;;;5010980;28;20088;-78
2023/07/16 07:59:07;;;;;;;2.95;0.50;;;;;;;;;;5009238;28;20148;-80
2023/07/16 08:01:33;;;;;;;3.13;0.50;;;24.70;99.90;;;;;;4999186;28;20029;-79
2023/07/16 08:03:59;;;;;;;1.42;0.22;;;;;;;;;;4987933;28;20026;-79
2023/07/16 08:06:26;;;;;;;6.85;1.17;;;;;;;;;;5001458;28;20113;-80
2023/07/16 08:08:52;;;;;;;3.90;0.95;;;;;;;;;;5011787;28;20032;-81
2023/07/16 08:11:17;;;;;;;3.20;0.40;;;22.50;99.90;;;;;;5010319;28;20499;-80
2023/07/16 08:13:43;;;;;;;2.03;0.60;;;22.60;99.90;;;;;;5006811;28;20076;-81
2023/07/16 08:16:09;;;;;;;1.45;0.40;;;;;;;;;;4998115;28;20025;-78
2023/07/16 08:18:35;;;;;;;3.78;0.47;;;;;;;;;;5005202;28;20057;-80
2023/07/16 08:21:01;;;;;;;4.88;0.95;;;;;;;;;;5004778;28;20527;-78
2023/07/16 08:23:27;;;;;;;2.08;0.43;;;;;;;;;;4995335;28;20043;-78
2023/07/16 08:25:53;;;;;;;4.53;0.68;;;;;;;;;;5002334;28;20774;-79
2023/07/16 08:28:19;;;;;;;0.98;0.63;;;;;;;;;;5002743;28;20054;-79
2023/07/16 08:30:48;;;;;;;3.83;0.80;;;24.70;99.90;;;;;;5003350;28;20030;-79
2023/07/16 08:33:14;;;;;;;1.33;0.52;;;;;;;;;;4999775;28;20023;-78
2023/07/16 08:35:40;;;;;;;2.78;0.70;;;;;;;;;;4995831;28;20026;-79
2023/07/16 08:38:10;;;;;;;1.58;0.50;;;;;;;;;;4973544;28;21057;-78
2023/07/16 08:40:39;;;;;;;4.57;0.40;;;24.60;99.90;;;;;;5000409;28;20571;-80
2023/07/16 08:43:10;;;;;;;2.42;0.43;;;25.30;99.90;;;;;;5011724;28;20393;-79
2023/07/16 08:45:47;;;;;;;4.28;0.47;;;24.60;99.90;;;;;;5002935;28;20041;-79
2023/07/16 08:48:13;;;;;;;2.15;0.50;;;26.50;99.90;;;;;;4989935;28;20169;-79
2023/07/16 08:50:42;;;;;;;2.25;0.55;;;28.80;96.60;;;;;;4994188;28;20069;-79
2023/07/16 08:53:08;;;;;;;3.55;0.90;;;;;;;;;;4987214;28;20044;-80
2023/07/16 08:55:36;;;;;;;3.70;0.70;;;;;;;;;;4985656;28;20028;-79
2023/07/16 08:58:04;;;;;;;6.70;0.65;;;28.00;90.60;;;;;;4989830;28;20314;-80
2023/07/16 09:00:30;;;;;;;3.10;0.70;;;27.30;92.90;;;;;;5004507;28;20038;-78
2023/07/16 09:02:56;;;;;;;8.63;0.95;;;;;;;;;;4986812;28;20037;-77
2023/07/16 09:05:23;;;;;;;1.55;0.35;;;;;;;;;;4981896;28;22316;-78
2023/07/16 09:07:49;;;;;;;6.07;0.80;;;;;;;;;;4999260;28;20025;-78
2023/07/16 09:10:15;;;;;;;2.50;0.75;;;;;;;;;;4993884;28;20518;-78
2023/07/16 09:12:47;;;;;;;3.42;0.82;;;25.40;92.60;;;;;;4989431;28;20038;-78
2023/07/16 09:15:21;;;;;;;2.08;0.50;;;;;;;;;;5001011;28;20022;-79
2023/07/16 09:17:48;;;;;;;3.55;0.50;;;24.60;96.50;;;;;;5008723;28;20082;-78
2023/07/16 09:20:16;;;;;;;5.93;0.90;;;23.90;99.80;;;;;;4993178;28;20041;-78
2023/07/16 09:22:42;;;;;;;1.33;0.57;;;;;;;;;;4996792;28;20117;-78
2023/07/16 09:25:09;;;;;;;2.50;0.60;;;23.50;99.90;;;;;;5002869;28;20219;-77
2023/07/16 09:27:35;;;;;;;1.05;0.57;;;;;;;;;;4997155;28;20443;-78
2023/07/16 09:30:02;;;;;;;5.68;1.10;;;;;;;;;;4993193;28;20053;-77
2023/07/16 09:32:35;;;;;;;2.58;0.60;;;;;;;;;;4996775;28;20033;-78
2023/07/16 09:35:00;;;;;;;;;;;24.20;99.70;;;;;;5005403;28;20088;-77
2023/07/16 09:37:28;;;;;;;3.25;0.52;;;24.50;97.10;;;;;;4992861;28;19917;-77
2023/07/16 09:39:54;;;;;;;4.15;1.42;;;;;;;;;;5010158;28;20382;-78
2023/07/16 09:42:21;;;;;;;4.55;0.50;;;25.10;98.10;;;;;;5005704;28;20026;-78
2023/07/16 09:44:47;;;;;;;1.52;0.75;;;;;;;;;;5006856;28;20034;-77
2023/07/16 09:47:13;;;;;;;4.07;0.50;;;;;;;;;;4985339;28;20092;-77
2023/07/16 09:49:39;;;;;;;1.95;0.60;;;25.80;99.90;;;;;;4990761;28;20042;-78
2023/07/16 09:52:06;;;;;;;1.63;0.40;;;26.10;95.80;;;;;;4978163;28;20108;-77
2023/07/16 09:54:37;;;;;;;3.05;0.47;;;26.20;94.20;;;;;;4987902;28;20582;-77
2023/07/16 09:57:04;;;;;;;3.33;0.70;;;26.20;94.70;;;;;;4973560;28;20049;-76
2023/07/16 09:59:32;;;;;;;3.45;1.27;;;26.10;95.70;;;;;;4975502;28;20018;-77
2023/07/16 10:01:58;;;;;;;1.75;0.60;;;;;;;;;;4983056;28;20042;-79
2023/07/16 10:04:24;;;;;;;2.13;0.80;;;27.80;95.60;;;;;;4983822;28;20030;-77
2023/07/16 10:06:50;;;;;;;3.35;1.33;;;;;;;;;;4994215;28;20153;-78
2023/07/16 10:09:34;;;;;;;2.25;0.45;;;25.70;92.70;;;;;;5003846;28;20150;-78
2023/07/16 10:12:15;;;;;;;2.67;0.35;;;26.30;94.20;;;;;;4999282;28;20032;-77
2023/07/16 10:14:42;;;;;;;2.80;0.38;;;26.30;94.00;;;;;;4985088;28;20037;-78
2023/07/16 10:17:13;;;;;;;3.72;0.63;;;26.60;93.80;;;;;;4967422;28;20037;-77
2023/07/16 10:19:56;;;;;;;1.77;0.73;;;26.80;92.30;;;;;;4981364;28;20060;-78
2023/07/16 10:22:35;;;;;;;1.33;0.45;;;26.10;93.40;;;;;;4987654;28;20481;-78
2023/07/16 10:25:02;;;;;;;5.05;1.02;;;25.40;93.70;;;;;;4985314;28;20034;-76
2023/07/16 10:27:29;;;;;;;5.07;0.45;;;;;;;;;;5003816;28;20040;-80
2023/07/16 10:29:55;;;;;;;2.55;0.50;;;;;;;;;;4993540;28;20030;-79
2023/07/16 10:32:21;;;;;;;1.02;0.47;;;;;;;;;;4969661;28;20038;-78
2023/07/16 10:34:47;;;;;;;2.58;0.50;;;;;;;;;;4979250;28;20037;-77
2023/07/16 10:37:13;;;;;;;6.80;0.50;;;;;;;;;;4994615;28;20547;-78
2023/07/16 10:39:49;;;;;;;1.50;0.50;;;;;;;;;;5009237;28;20022;-78
2023/07/16 10:42:16;;;;;;;4.95;0.70;;;25.60;93.20;;;;;;5002623;28;20042;-79
2023/07/16 10:44:42;;;;;;;3.85;0.65;;;25.70;99.80;;;;;;4987274;28;20112;-78
2023/07/16 10:47:08;;;;;;;5.53;0.80;;;;;;;;;;5003685;28;20188;-78
2023/07/16 10:54:38;;;;;;;1.70;0.50;;;;;;;;;;5031369;28;20112;-80
2023/07/16 10:57:04;;;;;;;2.03;0.70;;;25.50;94.10;;;;;;5020964;28;20105;-79
2023/07/16 10:59:30;;;;;;;5.35;0.75;;;;;;;;;;5033056;28;20120;-81
2023/07/16 11:01:56;;;;;;;1.10;0.40;;;;;;;;;;5027739;28;20112;-79
2023/07/16 11:04:22;;;;;;;5.75;1.00;;;;;;;;;;5039613;28;20773;-79
2023/07/16 11:06:50;;;;;;;2.10;0.50;;;26.10;92.30;;;;;;5034509;28;20095;-80
2023/07/16 11:09:16;;;;;;;5.15;1.00;;;;;;;;;;5030057;28;20066;-81
2023/07/16 11:11:41;;;;;;;1.60;0.88;;;26.30;99.90;;;;;;5026888;28;20043;-79
2023/07/16 11:14:07;;;;;;;2.78;0.68;;;26.20;91.30;;;;;;5043291;28;20480;-79
2023/07/16 11:16:37;;;;;;;6.55;0.68;;;26.20;92.60;;;;;;5040092;28;20048;-80
2023/07/16 11:19:05;;;;;;;5.13;1.35;;;26.00;91.50;;;;;;5019786;28;20104;-80
2023/07/16 11:21:32;;;;;;;1.95;0.55;;;25.80;93.00;;;;;;5042053;28;20036;-80
2023/07/16 11:24:12;;;;;;;2.20;0.90;;;25.80;94.20;;;;;;5047302;28;20023;-80
2023/07/16 11:26:38;;;;;;;1.95;0.60;;;;;;;;;;5039457;28;20053;-79
2023/07/16 11:29:14;;;;;;;2.88;0.50;;;25.70;93.00;;;;;;5046707;28;20021;-80
2023/07/16 11:31:43;;;;;;;5.40;1.05;;;;;;;;;;5038653;28;20025;-81
2023/07/16 11:34:13;;;;;;;3.38;0.63;;;25.90;92.30;;;;;;5026687;28;20018;-80
2023/07/16 11:36:39;;;;;;;1.25;0.60;;;;;;;;;;5026619;28;20049;-80
2023/07/16 11:39:05;;;;;;;1.60;0.60;;;;;;;;;;5038261;28;20260;-78
2023/07/16 11:41:31;;;;;;;5.00;0.47;;;25.70;96.10;;;;;;5030693;28;20702;-80
2023/07/16 11:44:01;;;;;;;4.70;0.93;;;26.60;89.10;;;;;;5043130;28;20111;-79
2023/07/16 11:46:32;;;;;;;2.55;0.55;;;26.20;90.90;;;;;;5020241;28;20413;-79
2023/07/16 11:48:58;;;;;;;3.13;0.47;;;;;;;;;;5041971;28;20108;-79
2023/07/16 11:51:24;;;;;;;1.58;0.43;;;;;;;;;;5034649;28;20112;-79
2023/07/16 11:53:50;;;;;;;1.52;0.65;;;;;;;;;;5039308;28;20090;-81
2023/07/16 11:56:16;;;;;;;1.27;0.50;;;;;;;;;;5023018;28;20027;-83
2023/07/16 11:58:42;;;;;;;2.95;0.50;;;;;;;;;;5025394;28;21555;-80
2023/07/16 12:01:07;;;;;;;1.48;0.70;;;26.10;99.90;;;;;;5038333;28;20599;-77
2023/07/16 12:03:34;;;;;;;3.20;0.52;;;26.10;91.50;;;;;;5029893;28;20040;-79
2023/07/16 12:06:00;;;;;;;2.83;1.48;;;;;;;;;;5040300;28;20037;-78
2023/07/16 12:08:26;;;;;;;1.40;0.65;;;;;;;;;;5037473;28;20017;-78
2023/07/16 12:10:51;;;;;;;2.75;0.63;;;;;;;;;;5040870;28;20036;-76
2023/07/16 12:13:17;;;;;;;3.75;0.77;;;;;;;;;;5037630;28;20314;-77
2023/07/16 12:15:43;;;;;;;3.92;0.52;;;;;;;;;;5033576;28;20029;-78
2023/07/16 12:18:09;;;;;;;1.63;0.60;;;;;;;;;;5035960;28;20020;-78
2023/07/16 12:20:39;;;;;;;1.38;0.70;;;;;;;;;;5036173;28;20061;-81
2023/07/16 12:23:05;;;;;;;2.63;0.80;;;;;;;;;;5036950;28;20017;-79
2023/07/16 12:25:31;;;;;;;2.47;0.80;;;;;;;;;;5048410;28;20171;-80
2023/07/16 12:27:57;;;;;;;0.68;0.55;;;;;;;;;;5045393;28;20151;-78
2023/07/16 12:30:24;;;;;;;1.05;0.38;;;25.40;88.50;;;;;;5040437;28;20029;-79
2023/07/16 12:32:50;;;;;;;3.20;0.70;;;;;;;;;;5026756;28;20669;-82
2023/07/16 12:35:15;;;;;;;1.40;0.60;;;25.50;99.90;;;;;;5039194;28;20029;-77
2023/07/16 12:37:41;;;;;;;2.35;0.55;;;;;;;;;;5045252;28;20750;-79
2023/07/16 12:40:08;;;;;;;1.65;0.50;;;;;;;;;;5042507;28;20021;-78
2023/07/16 12:42:34;;;;;;;2.35;0.60;;;26.00;99.60;;;;;;5029819;28;20140;-76
2023/07/16 12:45:00;;;;;;;1.63;0.45;;;26.00;97.30;;;;;;5026555;28;20029;-77
2023/07/16 12:47:26;;;;;;;2.60;0.70;;;;;;;;;;5043896;28;20479;-77
2023/07/16 12:49:52;;;;;;;2.25;0.60;;;;;;;;;;5046137;28;20079;-79
2023/07/16 12:52:18;;;;;;;2.47;0.77;;;;;;;;;;5031708;28;20379;-81
2023/07/16 12:54:44;;;;;;;1.52;0.50;;;;;;;;;;5030143;28;20384;-81
2023/07/16 12:57:10;;;;;;;1.75;0.55;;;;;;;;;;5038213;28;20059;-78
2023/07/16 12:59:36;;;;;;;2.47;0.70;;;;;;;;;;5034824;28;20024;-81
2023/07/16 13:02:02;;;;;;;6.25;0.60;;;;;;;;;;5035294;28;20063;-79
2023/07/16 13:04:28;;;;;;;2.03;0.98;;;26.10;97.10;;;;;;5036105;28;20036;-78
2023/07/16 13:06:53;;;;;;;2.30;0.50;;;;;;;;;;5036213;28;20481;-77
2023/07/16 13:09:19;;;;;;;4.55;0.80;;;;;;;;;;5038988;28;20501;-78
2023/07/16 13:11:45;;;;;;;3.20;0.65;;;;;;;;;;5039370;28;22654;-77
2023/07/16 13:14:11;;;;;;;1.02;0.40;;;;;;;;;;5030291;28;20029;-78
2023/07/16 13:16:37;;;;;;;3.95;0.80;;;;;;;;;;5022007;28;20032;-77
2023/07/16 13:19:03;;;;;;;3.42;0.55;;;;;;;;;;5016981;28;20053;-79
2023/07/16 13:21:29;;;;;;;1.45;0.50;;;;;;;;;;5014235;28;20033;-84
2023/07/16 13:23:55;;;;;;;1.42;0.52;;;;;;;;;;5020609;28;20029;-82
2023/07/16 13:26:21;;;;;;;1.17;0.50;;;;;;;;;;5011512;28;20052;-81
2023/07/16 13:28:47;;;;;;;1.98;0.70;;;;;;;;;;5022338;28;20020;-78
2023/07/16 13:31:13;;;;;;;2.00;0.52;;;;;;;;;;5017798;28;22577;-78
2023/07/16 13:33:39;;;;;;;4.07;0.95;;;;;;;;;;5023835;28;20025;-79
2023/07/16 13:36:05;;;;;;;0.35;0.28;;;;;;;;;;5032269;28;20400;-77
2023/07/16 13:38:32;;;;;;;3.63;0.65;;;;;;;;;;5037832;28;20671;-80
2023/07/16 13:40:57;;;;;;;4.28;0.95;;;;;;;;;;5039718;28;20384;-77
2023/07/16 13:43:23;;;;;;;2.63;0.80;;;;;;;;;;5023017;28;20028;-77
2023/07/16 13:45:49;;;;;;;4.03;0.80;;;;;;;;;;5035022;28;20484;-77
2023/07/16 13:48:15;;;;;;;3.13;0.47;;;;;;;;;;5035059;28;20426;-77
2023/07/16 13:50:41;;;;;;;1.33;0.55;;;;;;;;;;5038047;28;20029;-76
2023/07/16 13:53:07;;;;;;;1.55;0.50;;;;;;;;;;5035026;28;20033;-80
2023/07/16 13:55:34;;;;;;;1.77;0.40;;;;;;;;;;5033226;28;20448;-77
2023/07/16 13:57:59;;;;;;;2.75;0.80;;;25.80;91.70;;;;;;5038159;28;20013;-77
2023/07/16 14:00:25;;;;;;;1.65;0.60;;;;;;;;;;5040645;28;20059;-79
2023/07/16 14:02:51;;;;;;;4.53;0.82;;;26.00;89.90;;;;;;5032339;28;20368;-79
2023/07/16 14:05:19;;;;;;;1.67;0.70;;;;;;;;;;5036713;28;20056;-80
2023/07/16 14:07:45;;;;;;;3.25;0.88;;;;;;;;;;5038810;28;20589;-79
2023/07/16 14:10:11;;;;;;;1.25;0.60;;;;;;;;;;5039540;28;20175;-79
2023/07/16 14:12:37;;;;;;;3.08;0.60;;;;;;;;;;5023098;28;20036;-77
2023/07/16 14:15:02;;;;;;;4.57;0.75;;;26.20;95.10;;;;;;5030754;28;20053;-77